Time;durP1;ratioP1;P1;durP2;ratioP2;P2;SDS_P1;SDS_P2;PMS_P1;PMS_P2;Temp;Humidity;BMP_temperature;BMP_pressure;BME280_temperature;BME280_humidity;BME280_pressure;Samples;Min_cycle;Max_cycle;Signal;HPM_P1;HPM_P2
2022/11/21 00:02:05;;;;;;;0.20;0.20;;;;;;;;;;20899937;28;20217;-65
2022/11/21 00:12:06;;;;;;;0.60;0.43;;;;;;;;;;20900981;28;20287;-65
2022/11/21 00:22:08;;;;;;;4.53;0.47;;;;;;;;;;20899479;28;20201;-65
2022/11/21 00:32:10;;;;;;;1.33;0.60;;;;;;;;;;20899210;28;20210;-65
2022/11/21 00:42:11;;;;;;;0.37;0.30;;;;;;;;;;20900452;28;20224;-65
2022/11/21 00:52:13;;;;;;;1.20;0.53;;;;;;;;;;20915006;28;20264;-65
2022/11/21 01:02:15;;;;;;;3.07;0.50;;;;;;;;;;20912523;28;20214;-65
2022/11/21 01:12:17;;;;;;;0.63;0.33;;;;;;;;;;20912626;28;20280;-65
2022/11/21 01:22:19;;;;;;;0.20;0.20;;;;;;;;;;20911106;28;20222;-65
2022/11/21 01:32:20;;;;;;;0.73;0.30;;;;;;;;;;20911479;28;20701;-65
2022/11/21 01:42:22;;;;;;;1.30;0.40;;;;;;;;;;20909256;28;20267;-65
2022/11/21 01:52:27;;;;;;;0.27;0.20;;;;;;;;;;20908743;28;20229;-65
2022/11/21 02:02:33;;;;;;;0.20;0.13;;;;;;;;;;20908980;28;20251;-65
2022/11/21 02:12:40;;;;;;;0.10;0.10;;;;;;;;;;20890138;28;20217;-64
2022/11/21 02:22:44;;;;;;;0.00;0.00;;;;;;;;;;20907879;28;20202;-66
2022/11/21 02:32:46;;;;;;;0.13;0.10;;;;;;;;;;20905999;28;20236;-66
2022/11/21 02:43:13;;;;;;;0.10;0.10;;;6.70;99.90;;;;;;20904761;28;20186;-66
2022/11/21 02:53:17;;;;;;;1.30;0.53;;;6.90;99.90;;;;;;20905074;28;20210;-66
2022/11/21 03:03:19;;;;;;;0.00;0.00;;;;;;;;;;20902847;28;20202;-66
2022/11/21 03:13:21;;;;;;;0.37;0.20;;;;;;;;;;20903733;28;20210;-66
2022/11/21 03:23:23;;;;;;;0.10;0.10;;;;;;;;;;20903432;28;20267;-65
2022/11/21 03:33:25;;;;;;;0.30;0.20;;;;;;;;;;21166245;23;20228;-62
2022/11/21 03:43:27;;;;;;;0.20;0.20;;;;;;;;;;21086360;28;20260;-62
2022/11/21 03:53:29;;;;;;;0.10;0.10;;;;;;;;;;21086113;28;20285;-62
2022/11/21 04:03:31;;;;;;;0.90;0.10;;;;;;;;;;21102292;28;20690;-62
2022/11/21 04:13:33;;;;;;;0.10;0.10;;;;;;;;;;21085438;28;20224;-62
2022/11/21 04:23:34;;;;;;;0.20;0.20;;;5.80;99.90;;;;;;21100480;28;20287;-63
2022/11/21 04:33:37;;;;;;;2.07;0.23;;;7.00;99.90;;;;;;21128858;27;20220;-63
2022/11/21 04:43:39;;;;;;;0.10;0.10;;;;;;;;;;21188757;27;20729;-62
2022/11/21 04:53:40;;;;;;;1.40;0.40;;;;;;;;;;21183715;27;20211;-62
2022/11/21 05:03:42;;;;;;;1.07;0.20;;;;;;;;;;21177749;27;20216;-62
2022/11/21 05:13:44;;;;;;;0.83;0.20;;;;;;;;;;21163755;27;20219;-62
2022/11/21 05:23:46;;;;;;;0.20;0.10;;;;;;;;;;21130769;27;20207;-63
2022/11/21 05:33:49;;;;;;;1.63;0.50;;;;;;;;;;21197415;27;20311;-62
2022/11/21 05:43:50;;;;;;;1.70;0.50;;;;;;;;;;21157793;27;20204;-63
2022/11/21 05:53:52;;;;;;;0.60;0.30;;;;;;;;;;21203262;27;20589;-63
2022/11/21 06:03:54;;;;;;;0.83;0.27;;;;;;;;;;21178436;27;20203;-63
2022/11/21 06:13:56;;;;;;;1.20;0.53;;;;;;;;;;21194877;27;20238;-63
2022/11/21 06:23:58;;;;;;;1.27;0.30;;;;;;;;;;21176896;27;20215;-64
2022/11/21 06:34:00;;;;;;;0.23;0.20;;;;;;;;;;21191827;27;20646;-63
2022/11/21 06:44:02;;;;;;;0.10;0.10;;;;;;;;;;21161663;27;20276;-63
2022/11/21 06:54:04;;;;;;;0.80;0.37;;;;;;;;;;21207541;27;20223;-63
2022/11/21 07:04:06;;;;;;;1.43;0.40;;;;;;;;;;21190908;27;20199;-63
2022/11/21 07:14:09;;;;;;;2.43;0.60;;;;;;;;;;21206930;27;20338;-63
2022/11/21 07:24:11;;;;;;;1.13;0.60;;;;;;;;;;21205582;27;20569;-64
2022/11/21 07:34:13;;;;;;;0.63;0.33;;;;;;;;;;21188544;27;20758;-63
2022/11/21 07:44:15;;;;;;;1.50;0.37;;;;;;;;;;21205093;27;20271;-63
2022/11/21 07:54:18;;;;;;;0.70;0.40;;;;;;;;;;21187399;27;20779;-64
2022/11/21 08:04:19;;;;;;;0.20;0.20;;;;;;;;;;21090420;28;20215;-64
2022/11/21 08:14:22;;;;;;;0.33;0.20;;;;;;;;;;21111464;28;20240;-64
2022/11/21 08:24:24;;;;;;;0.20;0.20;;;;;;;;;;21015528;28;20262;-63
2022/11/21 08:34:26;;;;;;;1.00;0.30;;;;;;;;;;21032651;28;20711;-63
2022/11/21 08:44:35;;;;;;;3.43;0.80;;;;;;;;;;21033377;28;20251;-63
2022/11/21 08:54:37;;;;;;;0.57;0.30;;;;;;;;;;21033380;28;20625;-64
2022/11/21 09:04:39;;;;;;;0.47;0.20;;;;;;;;;;21021588;28;20273;-64
2022/11/21 09:25:01;;;;;;;0.10;0.10;;;;;;;;;;21074479;22;20212;-67
2022/11/21 09:35:03;;;;;;;0.43;0.20;;;;;;;;;;20992029;28;20270;-68
2022/11/21 09:45:07;;;;;;;1.20;0.50;;;;;;;;;;20994176;28;20205;-70
2022/11/21 09:55:35;;;;;;;2.20;0.40;;;;;;;;;;20992333;28;20216;-70
2022/11/21 10:05:41;;;;;;;0.43;0.23;;;;;;;;;;20989426;28;20221;-72
2022/11/21 10:15:51;;;;;;;3.07;0.40;;;;;;;;;;20989540;28;20533;-70
2022/11/21 10:26:06;;;;;;;1.43;0.83;;;8.90;99.90;;;;;;20989924;28;20213;-70
2022/11/21 10:36:13;;;;;;;1.13;0.73;;;;;;;;;;20982630;28;20263;-70
2022/11/21 10:46:15;;;;;;;2.10;0.70;;;;;;;;;;21006313;28;20205;-70
2022/11/21 10:56:18;;;;;;;1.43;0.30;;;;;;;;;;20965681;28;20225;-70
2022/11/21 11:06:28;;;;;;;1.07;0.37;;;;;;;;;;20983991;28;20270;-70
2022/11/21 11:16:31;;;;;;;1.20;0.30;;;9.00;99.90;;;;;;20982730;28;20693;-70
2022/11/21 11:26:33;;;;;;;2.33;0.30;;;;;;;;;;20979452;28;20555;-70
2022/11/21 11:36:44;;;;;;;1.10;0.40;;;;;;;;;;20984513;28;20239;-70
2022/11/21 11:57:13;;;;;;;2.13;0.40;;;9.70;99.90;;;;;;20982272;28;20224;-70
2022/11/21 12:07:14;;;;;;;0.50;0.40;;;;;;;;;;20983648;28;20200;-69
2022/11/21 12:17:23;;;;;;;1.33;0.30;;;9.00;99.90;;;;;;20964833;28;20527;-70
2022/11/21 12:27:30;;;;;;;3.67;0.50;;;9.10;99.90;;;;;;20981357;28;20213;-70
2022/11/21 12:37:52;;;;;;;2.00;0.60;;;9.40;99.90;;;;;;20985575;28;20213;-70
2022/11/21 12:58:27;;;;;;;2.33;0.47;;;9.70;99.90;;;;;;20995565;28;20370;-69
2022/11/21 13:08:34;;;;;;;3.10;0.60;;;;;;;;;;20994981;28;20217;-68
2022/11/21 13:18:41;;;;;;;1.97;0.50;;;;;;;;;;20995072;28;20270;-68
2022/11/21 13:28:45;;;;;;;7.37;0.70;;;;;;;;;;20994331;28;20209;-68
2022/11/21 13:38:54;;;;;;;1.13;0.30;;;9.20;99.90;;;;;;20988268;28;20632;-68
2022/11/21 13:49:06;;;;;;;1.87;0.50;;;8.90;99.90;;;;;;20978680;28;20741;-68
2022/11/21 13:59:29;;;;;;;0.90;0.40;;;;;;;;;;20989908;28;20685;-68
2022/11/21 14:09:37;;;;;;;0.73;0.30;;;;;;;;;;20992271;28;20216;-68
2022/11/21 14:19:41;;;;;;;2.33;0.40;;;;;;;;;;20947341;28;20229;-68
2022/11/21 14:29:42;;;;;;;1.77;0.67;;;;;;;;;;21057835;28;20583;-68
2022/11/21 14:39:46;;;;;;;2.00;0.47;;;;;;;;;;20981985;28;20298;-69
2022/11/21 14:49:49;;;;;;;4.63;0.50;;;;;;;;;;20961559;28;20208;-68
2022/11/21 14:59:51;;;;;;;3.30;1.23;;;;;;;;;;20972389;28;20581;-67
2022/11/21 15:09:53;;;;;;;2.13;0.70;;;;;;;;;;20954865;28;20489;-67
2022/11/21 15:20:10;;;;;;;2.10;1.20;;;8.30;99.90;;;;;;21023289;28;20635;-67
2022/11/21 15:30:20;;;;;;;2.60;1.10;;;;;;;;;;21036818;28;20220;-68
2022/11/21 15:40:21;;;;;;;2.40;1.20;;;;;;;;;;21127513;22;20231;-64
2022/11/21 15:50:25;;;;;;;3.03;1.20;;;8.10;99.90;;;;;;21091701;28;20343;-63
2022/11/21 16:00:27;;;;;;;2.50;0.97;;;;;;;;;;21109440;28;20586;-63
2022/11/21 16:10:29;;;;;;;4.03;1.80;;;;;;;;;;21114100;28;20261;-63
2022/11/21 16:20:33;;;;;;;3.80;1.10;;;;;;;;;;21131784;28;20270;-62
2022/11/21 16:30:38;;;;;;;2.13;0.87;;;;;;;;;;21114449;28;20686;-62
2022/11/21 16:40:39;;;;;;;2.87;0.80;;;;;;;;;;21112945;28;20261;-65
2022/11/21 16:50:42;;;;;;;1.57;0.67;;;;;;;;;;21104253;28;20300;-64
2022/11/21 17:00:44;;;;;;;4.13;1.03;;;;;;;;;;21106757;28;20223;-64
2022/11/21 17:10:46;;;;;;;2.03;1.00;;;;;;;;;;21127250;28;20215;-63
2022/11/21 17:20:48;;;;;;;1.50;0.57;;;;;;;;;;21110136;28;20292;-63
2022/11/21 17:30:51;;;;;;;1.40;0.80;;;7.40;99.90;;;;;;21124765;28;20232;-65
2022/11/21 17:41:00;;;;;;;5.00;1.33;;;;;;;;;;21122466;28;20235;-64
2022/11/21 17:51:04;;;;;;;1.87;0.73;;;;;;;;;;21123533;28;20212;-64
2022/11/21 18:01:07;;;;;;;1.23;0.70;;;;;;;;;;21105347;28;20224;-64
2022/11/21 18:11:11;;;;;;;1.70;1.10;;;7.40;99.90;;;;;;21105771;28;20265;-64
2022/11/21 18:21:15;;;;;;;2.00;0.90;;;7.10;99.90;;;;;;21102145;28;20589;-64
2022/11/21 18:31:19;;;;;;;3.50;1.07;;;7.40;99.90;;;;;;21109612;28;20379;-64
2022/11/21 18:41:30;;;;;;;1.73;0.63;;;;;;;;;;21118441;28;20272;-63
2022/11/21 18:51:32;;;;;;;2.73;0.70;;;7.60;99.90;;;;;;21090476;28;20212;-64
2022/11/21 19:01:35;;;;;;;2.10;0.90;;;;;;;;;;21112848;28;20273;-64
2022/11/21 19:11:37;;;;;;;3.40;0.80;;;;;;;;;;21031897;28;20204;-64
2022/11/21 19:21:39;;;;;;;1.07;0.50;;;;;;;;;;21032407;28;20266;-64
2022/11/21 19:31:41;;;;;;;2.93;1.53;;;;;;;;;;21031576;28;20257;-63
2022/11/21 19:41:43;;;;;;;1.50;0.97;;;;;;;;;;21047428;28;20238;-64
2022/11/21 19:51:44;;;;;;;2.23;1.07;;;;;;;;;;21046744;28;20203;-64
2022/11/21 20:01:47;;;;;;;1.13;0.77;;;;;;;;;;21114087;28;20208;-64
2022/11/21 20:11:51;;;;;;;2.13;0.93;;;;;;;;;;21114696;28;20211;-64
2022/11/21 20:21:53;;;;;;;1.10;0.70;;;;;;;;;;21113419;28;20747;-64
2022/11/21 20:31:57;;;;;;;1.63;1.20;;;8.10;99.90;;;;;;21113902;28;20204;-65
2022/11/21 20:42:00;;;;;;;2.47;1.10;;;;;;;;;;21112562;28;20284;-64
2022/11/21 20:52:02;;;;;;;7.37;3.50;;;;;;;;;;21095920;28;20694;-63
2022/11/21 21:02:04;;;;;;;1.57;1.00;;;;;;;;;;21120590;28;20269;-64
2022/11/21 21:12:06;;;;;;;2.23;1.10;;;;;;;;;;21140110;28;20296;-63
2022/11/21 21:22:08;;;;;;;1.43;0.67;;;;;;;;;;21125618;28;20264;-64
2022/11/21 21:32:10;;;;;;;1.30;0.90;;;;;;;;;;21142525;28;20228;-63
2022/11/21 21:42:12;;;;;;;2.27;0.90;;;;;;;;;;20913573;23;20234;-69
2022/11/21 21:52:14;;;;;;;3.40;1.17;;;6.90;99.90;;;;;;20909032;28;20283;-69
2022/11/21 22:02:16;;;;;;;2.90;1.00;;;;;;;;;;20890989;28;20259;-69
2022/11/21 22:12:18;;;;;;;1.57;0.70;;;;;;;;;;20905572;28;20233;-68
2022/11/21 22:22:20;;;;;;;0.73;0.40;;;;;;;;;;20907109;28;20276;-68
2022/11/21 22:32:22;;;;;;;1.17;0.60;;;;;;;;;;20904883;28;20233;-68
2022/11/21 22:42:23;;;;;;;2.33;1.30;;;;;;;;;;20906119;28;20217;-68
2022/11/21 22:52:25;;;;;;;2.23;1.37;;;;;;;;;;20905594;28;20267;-69
2022/11/21 23:02:27;;;;;;;4.30;0.87;;;;;;;;;;20904701;28;20252;-68
2022/11/21 23:12:29;;;;;;;0.93;0.63;;;;;;;;;;20903079;28;20596;-68
2022/11/21 23:22:31;;;;;;;1.53;0.87;;;;;;;;;;20901672;28;20277;-69
2022/11/21 23:32:33;;;;;;;3.47;0.90;;;;;;;;;;20900227;28;20229;-69
2022/11/21 23:42:35;;;;;;;1.33;0.63;;;;;;;;;;20883606;28;20771;-68
2022/11/21 23:52:36;;;;;;;1.27;0.60;;;;;;;;;;20901223;28;20211;-68
